Hawthorne, Alabama
Current Conditions -  °F | °C
As of 10:56 PM on Friday 28 Nov 2014 (Local Time) from KMOB Reporting Station
Clear Clear  
Wind Chill: 40°   Ceiling: Unl
Heat Index: 40°   Visibility: 10mi
Dew Point: 36°   Wind: 3mph
Humidity: 86%   Direction: 120°ESE
Pressure: 30.27"   Gusts: NA
Location:  31.1944°N, 88.2946°W
Report Text: KMOB 290456Z 12003KT 10SM CLR 04/02 A3027 RMK AO2 SLP249 T00440022
Loading
Personal Weather Stations






























Interactive Weather Map New forecast layout! Learn more

10-Day Weather Forecast

Advertisements
Track Severe Weather on mobile